Time;durP1;ratioP1;P1;durP2;ratioP2;P2;SDS_P1;SDS_P2;PMS_P1;PMS_P2;Temp;Humidity;BMP_temperature;BMP_pressure;BME280_temperature;BME280_humidity;BME280_pressure;Samples;Min_cycle;Max_cycle;Signal;HPM_P1;HPM_P2
2021/08/18 00:00:12;;;;;;;22.48;16.25;;;;;;;13.38;100.00;96083.69;5021214;28;20429;-81
2021/08/18 00:02:38;;;;;;;23.50;16.25;;;;;;;13.35;100.00;96084.75;5019241;28;20448;-80
2021/08/18 00:05:04;;;;;;;19.23;17.00;;;;;;;13.38;100.00;96094.09;5018729;28;20953;-80
2021/08/18 00:07:30;;;;;;;24.63;16.42;;;;;;;13.43;100.00;96092.03;5019835;28;20412;-80
2021/08/18 00:09:56;;;;;;;21.47;16.30;;;;;;;13.49;100.00;96091.59;5019608;28;20429;-80
2021/08/18 00:12:21;;;;;;;20.17;15.97;;;;;;;13.52;100.00;96088.78;5019606;28;20441;-79
2021/08/18 00:14:48;;;;;;;19.20;15.27;;;;;;;13.54;100.00;96092.13;5019938;28;20419;-80
2021/08/18 00:17:13;;;;;;;22.30;15.55;;;;;;;13.58;100.00;96090.13;5017052;28;20468;-80
2021/08/18 00:19:39;;;;;;;20.75;15.15;;;;;;;13.56;100.00;96087.63;5016749;28;20467;-81
2021/08/18 00:22:04;;;;;;;21.00;16.20;;;;;;;13.51;100.00;96089.72;5017258;28;20417;-80
2021/08/18 00:24:30;;;;;;;19.63;16.13;;;;;;;13.48;100.00;96088.16;5018642;28;20471;-79
2021/08/18 00:26:55;;;;;;;18.33;16.37;;;;;;;13.46;100.00;96094.38;5018492;28;20424;-80
2021/08/18 00:29:20;;;;;;;19.70;16.73;;;;;;;13.41;100.00;96086.91;5018569;28;20424;-79
2021/08/18 00:31:47;;;;;;;21.90;16.57;;;;;;;13.46;100.00;96091.78;5016345;28;20424;-80
2021/08/18 00:34:13;;;;;;;20.75;15.13;;;;;;;13.36;100.00;96080.38;5018414;28;20409;-79
2021/08/18 00:36:38;;;;;;;22.30;16.60;;;;;;;13.26;100.00;96077.56;5018021;28;20843;-80
2021/08/18 00:39:04;;;;;;;19.33;15.10;;;;;;;13.25;100.00;96079.34;5015839;28;20477;-81
2021/08/18 00:41:29;;;;;;;18.25;15.90;;;;;;;13.23;100.00;96068.19;5017759;28;20412;-80
2021/08/18 00:43:55;;;;;;;17.00;15.18;;;;;;;13.15;100.00;96062.66;5015586;28;20412;-79
2021/08/18 00:46:20;;;;;;;19.10;16.48;;;;;;;13.10;100.00;96063.94;5015483;28;20476;-77
2021/08/18 00:48:47;;;;;;;18.43;14.90;;;;;;;13.07;100.00;96067.56;5018735;28;20424;-77
2021/08/18 00:51:12;;;;;;;20.03;15.57;;;;;;;13.04;100.00;96067.75;5021793;28;20439;-76
2021/08/18 00:53:38;;;;;;;18.63;15.27;;;;;;;13.11;100.00;96066.41;5022886;28;20790;-77
2021/08/18 00:56:03;;;;;;;23.93;16.43;;;;;;;13.11;100.00;96060.38;5020480;28;20424;-78
2021/08/18 00:58:29;;;;;;;21.20;16.00;;;;;;;13.03;100.00;96064.31;5022218;28;20432;-79
2021/08/18 01:00:56;;;;;;;30.20;15.97;;;;;;;13.03;100.00;96060.91;5022198;28;20838;-78
2021/08/18 01:03:21;;;;;;;26.70;16.77;;;;;;;12.82;100.00;96063.16;5020339;28;20509;-79
2021/08/18 01:05:48;;;;;;;19.17;15.73;;;;;;;12.90;100.00;96067.84;5021177;28;20507;-78
2021/08/18 01:08:13;;;;;;;21.98;16.90;;;;;;;12.88;100.00;96061.94;5022348;28;20464;-78
2021/08/18 01:10:39;;;;;;;21.67;17.27;;;;;;;12.96;100.00;96059.66;5022450;28;20428;-77
2021/08/18 01:13:05;;;;;;;23.90;16.97;;;;;;;13.04;100.00;96054.75;5021241;28;20852;-78
2021/08/18 01:15:32;;;;;;;19.80;16.33;;;;;;;13.04;100.00;96059.97;5022500;28;20424;-77
2021/08/18 01:17:59;;;;;;;22.40;16.92;;;;;;;13.02;100.00;96062.69;5021888;28;20420;-79
2021/08/18 01:20:28;;;;;;;23.13;16.90;;;;;;;13.04;100.00;96062.56;5019969;28;20461;-78
2021/08/18 01:22:56;;;;;;;22.25;16.05;;;;;;;13.06;100.00;96058.94;5021418;28;20468;-78
2021/08/18 01:25:22;;;;;;;22.45;17.25;;;;;;;13.08;100.00;96061.41;5020850;28;20511;-78
2021/08/18 01:27:50;;;;;;;21.08;17.05;;;;;;;13.07;100.00;96060.59;5021394;28;20479;-78
2021/08/18 01:30:18;;;;;;;17.77;15.88;;;;;;;13.04;100.00;96060.78;5019834;28;20424;-77
2021/08/18 01:32:49;;;;;;;17.63;15.73;;;;;;;12.98;100.00;96065.59;5021598;28;20440;-79
2021/08/18 01:35:23;;;;;;;20.57;15.93;;;;;;;13.00;100.00;96063.69;5022323;28;20435;-79
2021/08/18 01:37:49;;;;;;;21.65;16.02;;;;;;;12.99;100.00;96064.66;5021712;28;20423;-78
2021/08/18 01:40:15;;;;;;;22.10;16.55;;;;;;;13.01;100.00;96071.38;5023663;28;20511;-78
2021/08/18 01:42:40;;;;;;;18.15;15.80;;;;;;;13.00;100.00;96061.09;5023701;28;20456;-79
2021/08/18 01:45:07;;;;;;;17.67;15.77;;;;;;;13.04;100.00;96062.56;5021058;28;20416;-76
2021/08/18 01:47:34;;;;;;;20.70;16.35;;;;;;;13.04;100.00;96063.38;5021173;28;20435;-78
2021/08/18 01:50:00;;;;;;;17.85;15.45;;;;;;;13.13;100.00;96063.72;5023337;28;20431;-78
2021/08/18 01:52:25;;;;;;;20.00;16.50;;;;;;;13.05;100.00;96059.00;5023458;28;20440;-77
2021/08/18 01:54:51;;;;;;;20.83;15.85;;;;;;;12.93;100.00;96065.06;5022015;28;20554;-78
2021/08/18 01:57:17;;;;;;;20.08;16.33;;;;;;;12.88;100.00;96064.53;5021445;28;20420;-77
2021/08/18 01:59:42;;;;;;;21.65;17.05;;;;;;;12.76;100.00;96067.03;5021593;28;20431;-77
2021/08/18 02:02:08;;;;;;;16.63;15.00;;;;;;;12.86;100.00;96072.41;5020884;28;20428;-78
2021/08/18 02:04:36;;;;;;;19.27;16.80;;;;;;;12.87;100.00;96068.06;5020582;28;20500;-78
2021/08/18 02:07:02;;;;;;;21.97;16.07;;;;;;;12.87;100.00;96062.84;5021762;28;20424;-78
2021/08/18 02:09:27;;;;;;;18.65;15.82;;;;;;;12.86;100.00;96061.19;5020913;28;20417;-78
2021/08/18 02:11:53;;;;;;;18.03;15.80;;;;;;;12.73;100.00;96061.19;5020161;28;20416;-77
2021/08/18 02:14:18;;;;;;;20.27;16.13;;;;;;;12.81;100.00;96064.13;5021024;28;20763;-77
2021/08/18 02:16:44;;;;;;;19.07;16.27;;;;;;;12.84;100.00;96062.16;5020680;28;20786;-78
2021/08/18 02:19:09;;;;;;;19.48;15.57;;;;;;;12.80;100.00;96067.66;5021186;28;20491;-77
2021/08/18 02:21:36;;;;;;;20.43;15.30;;;;;;;12.78;100.00;96062.53;5022528;28;20416;-77
2021/08/18 02:24:01;;;;;;;19.08;15.63;;;;;;;12.73;100.00;96058.59;5020305;28;20803;-77
2021/08/18 02:26:27;;;;;;;16.87;15.10;;;;;;;12.70;100.00;96059.63;5022041;28;20422;-77
2021/08/18 02:28:52;;;;;;;18.70;15.23;;;;;;;12.76;100.00;96050.59;5022653;28;20413;-78
2021/08/18 02:31:18;;;;;;;16.73;14.43;;;;;;;12.83;100.00;96049.25;5020875;28;20497;-78
2021/08/18 02:33:43;;;;;;;22.88;14.98;;;;;;;12.83;100.00;96054.47;5019935;28;20421;-81
2021/08/18 02:36:09;;;;;;;18.65;15.40;;;;;;;12.78;100.00;96052.16;5023120;28;20512;-80
2021/08/18 02:38:36;;;;;;;15.82;14.20;;;;;;;12.88;100.00;96060.16;5022840;28;20457;-80
2021/08/18 02:41:01;;;;;;;15.65;14.05;;;;;;;12.88;100.00;96056.75;5022504;28;20829;-79
2021/08/18 02:43:27;;;;;;;15.27;13.68;;;;;;;12.93;100.00;96047.69;5020936;28;20425;-80
2021/08/18 02:45:52;;;;;;;15.63;13.97;;;;;;;12.93;100.00;96050.28;5021447;28;20427;-80
2021/08/18 02:48:17;;;;;;;15.50;13.87;;;;;;;12.88;100.00;96047.16;5020576;28;20914;-80
2021/08/18 02:50:43;;;;;;;18.70;14.77;;;;;;;12.86;100.00;96045.59;5015285;28;20464;-80
2021/08/18 02:53:09;;;;;;;17.60;14.13;;;;;;;12.87;100.00;96047.25;5014850;28;20420;-80
2021/08/18 02:55:36;;;;;;;16.90;13.63;;;;;;;12.86;100.00;96054.22;5015465;28;20970;-80
2021/08/18 02:58:01;;;;;;;16.45;13.90;;;;;;;12.76;100.00;96048.84;5015264;28;20419;-80
2021/08/18 03:00:27;;;;;;;17.27;13.93;;;;;;;12.71;100.00;96053.50;5015193;28;20712;-80
2021/08/18 03:02:52;;;;;;;17.88;13.75;;;;;;;12.68;100.00;96053.72;5015088;28;20478;-80
2021/08/18 03:05:19;;;;;;;14.87;13.27;;;;;;;12.60;100.00;96051.59;5013256;28;20509;-78
2021/08/18 03:07:44;;;;;;;15.63;12.77;;;;;;;12.68;100.00;96053.72;5012681;28;20483;-80
2021/08/18 03:10:10;;;;;;;17.23;13.30;;;;;;;12.67;100.00;96059.81;5014008;28;20416;-78
2021/08/18 03:12:37;;;;;;;15.67;12.77;;;;;;;12.67;100.00;96049.44;5014309;28;20509;-78
2021/08/18 03:15:03;;;;;;;18.17;12.45;;;;;;;12.74;100.00;96055.06;5014388;28;20886;-78
2021/08/18 03:17:29;;;;;;;14.37;12.00;;;;;;;12.76;100.00;96056.63;5012665;28;20437;-78
2021/08/18 03:19:54;;;;;;;17.40;12.73;;;;;;;12.82;100.00;96050.16;5013732;28;20448;-78
2021/08/18 03:22:19;;;;;;;18.50;12.90;;;;;;;12.80;100.00;96052.06;5015053;28;20529;-78
2021/08/18 03:24:45;;;;;;;13.18;11.77;;;;;;;12.83;100.00;96047.50;5013501;28;20479;-78
2021/08/18 03:27:10;;;;;;;17.55;11.85;;;;;;;12.82;100.00;96048.41;5014649;28;20463;-78
2021/08/18 03:29:37;;;;;;;14.67;12.57;;;;;;;12.79;100.00;96050.38;5015170;28;20459;-78
2021/08/18 03:32:03;;;;;;;14.50;11.17;;;;;;;12.82;100.00;96053.59;5015181;28;20899;-78
2021/08/18 03:34:29;;;;;;;14.25;11.52;;;;;;;12.90;100.00;96050.47;5014877;28;20475;-78
2021/08/18 03:36:54;;;;;;;12.40;10.73;;;;;;;12.93;100.00;96055.47;5013454;28;20463;-78
2021/08/18 03:39:20;;;;;;;11.45;10.27;;;;;;;13.00;100.00;96053.31;5014855;28;20417;-79
2021/08/18 03:41:45;;;;;;;11.80;9.93;;;;;;;13.04;100.00;96046.97;5013004;28;20458;-79
2021/08/18 03:44:10;;;;;;;11.40;10.27;;;;;;;13.07;100.00;96049.34;5013258;28;20930;-79
2021/08/18 03:46:37;;;;;;;15.27;10.93;;;;;;;13.01;100.00;96055.78;5013364;28;20847;-78
2021/08/18 03:49:03;;;;;;;12.32;10.23;;;;;;;13.04;100.00;96057.34;5014603;28;20424;-79
2021/08/18 03:51:28;;;;;;;10.20;9.05;;;;;;;13.10;100.00;96053.53;5014599;28;20412;-78
2021/08/18 03:53:53;;;;;;;11.20;9.97;;;;;;;13.13;100.00;96055.91;5014469;28;20499;-78
2021/08/18 03:56:19;;;;;;;11.20;9.30;;;;;;;13.10;100.00;96058.72;5014244;28;20822;-78
2021/08/18 03:58:44;;;;;;;11.87;8.93;;;;;;;13.08;100.00;96056.22;5013568;28;20960;-79
2021/08/18 04:01:10;;;;;;;10.50;8.77;;;;;;;13.13;100.00;96056.75;5013574;28;20530;-79
2021/08/18 04:03:37;;;;;;;9.50;8.23;;;;;;;13.17;100.00;96057.38;5014453;28;20925;-78
2021/08/18 04:06:03;;;;;;;10.25;8.75;;;;;;;13.18;100.00;96059.84;5014463;28;20819;-79
2021/08/18 04:08:28;;;;;;;9.87;8.20;;;;;;;13.19;100.00;96061.50;5014886;28;20977;-79
2021/08/18 04:10:55;;;;;;;9.10;8.20;;;;;;;13.05;100.00;96065.06;5015068;28;20425;-79
2021/08/18 04:13:20;;;;;;;11.13;8.80;;;;;;;13.10;100.00;96062.16;5014518;28;20416;-78
2021/08/18 04:15:45;;;;;;;9.43;8.10;;;;;;;13.13;100.00;96064.56;5015770;28;20779;-83
2021/08/18 04:18:11;;;;;;;9.17;7.67;;;;;;;13.10;100.00;96063.94;5015837;28;20424;-82
2021/08/18 04:20:38;;;;;;;10.37;8.67;;;;;;;13.13;100.00;96066.31;5016636;28;20492;-83
2021/08/18 04:23:04;;;;;;;9.35;8.20;;;;;;;13.12;100.00;96068.06;5024096;28;20451;-83
2021/08/18 04:25:31;;;;;;;9.05;8.15;;;;;;;13.14;100.00;96067.97;5026233;28;20420;-82
2021/08/18 04:27:56;;;;;;;10.05;8.32;;;;;;;13.13;100.00;96069.75;5019762;28;20429;-81
2021/08/18 04:30:23;;;;;;;8.82;7.78;;;;;;;13.11;100.00;96074.22;5011261;28;20426;-82
2021/08/18 04:32:48;;;;;;;10.35;7.75;;;;;;;13.14;100.00;96065.38;5017249;28;20410;-81
2021/08/18 04:35:17;;;;;;;9.33;8.37;;;;;;;13.19;100.00;96068.47;5018883;28;20436;-80
2021/08/18 04:37:44;;;;;;;10.43;8.27;;;;;;;13.23;100.00;96070.78;5002683;28;20474;-81
2021/08/18 04:40:12;;;;;;;9.63;8.38;;;;;;;13.26;100.00;96073.19;5012857;28;20416;-80
2021/08/18 04:42:39;;;;;;;9.90;8.90;;;;;;;13.24;100.00;96075.09;5013386;28;20428;-81
2021/08/18 04:45:06;;;;;;;9.70;8.65;;;;;;;13.14;100.00;96076.59;5013526;28;20420;-80
2021/08/18 04:47:32;;;;;;;11.95;8.73;;;;;;;13.18;100.00;96070.25;5012765;28;20474;-80
2021/08/18 04:49:58;;;;;;;11.13;9.00;;;;;;;13.22;100.00;96069.09;5012765;28;20413;-80
2021/08/18 04:52:23;;;;;;;14.83;8.80;;;;;;;13.24;100.00;96064.69;5013735;28;20432;-80
2021/08/18 04:54:51;;;;;;;8.97;8.07;;;;;;;13.09;100.00;96068.28;5012682;28;20834;-80
2021/08/18 04:57:16;;;;;;;9.40;8.40;;;;;;;13.08;100.00;96066.59;5009234;28;20504;-79
2021/08/18 04:59:41;;;;;;;9.43;7.63;;;;;;;13.03;100.00;96066.94;5007103;28;20846;-79
2021/08/18 05:02:07;;;;;;;9.73;8.30;;;;;;;13.05;100.00;96066.81;4998920;28;20506;-80
2021/08/18 05:04:32;;;;;;;9.10;7.97;;;;;;;13.05;100.00;96067.66;5023365;28;20420;-80
2021/08/18 05:06:58;;;;;;;11.40;8.30;;;;;;;13.09;100.00;96068.28;5011722;28;20470;-79
2021/08/18 05:09:23;;;;;;;10.17;8.13;;;;;;;13.02;100.00;96069.66;5009322;28;20428;-80
2021/08/18 05:11:50;;;;;;;9.60;7.97;;;;;;;13.06;100.00;96063.31;5015990;28;20417;-80
2021/08/18 05:14:15;;;;;;;8.02;7.18;;;;;;;13.03;100.00;96079.09;5017488;28;20782;-80
2021/08/18 05:16:41;;;;;;;10.33;7.23;;;;;;;13.04;100.00;96070.34;5015948;28;20515;-80
2021/08/18 05:19:06;;;;;;;8.40;6.90;;;;;;;13.06;100.00;96069.31;5004135;28;20793;-80
2021/08/18 05:21:32;;;;;;;8.07;7.20;;;;;;;13.10;100.00;96080.34;4997460;28;20927;-80
2021/08/18 05:23:57;;;;;;;7.67;6.93;;;;;;;13.19;100.00;96074.50;4998330;28;20461;-80
2021/08/18 05:26:23;;;;;;;10.17;7.73;;;;;;;13.19;100.00;96076.28;5002053;28;20426;-80
2021/08/18 05:28:49;;;;;;;8.03;7.17;;;;;;;13.16;100.00;96074.72;5019194;28;20494;-81
2021/08/18 05:31:15;;;;;;;6.47;5.85;;;;;;;13.20;100.00;96071.00;5022894;28;20463;-80
2021/08/18 05:33:40;;;;;;;6.03;5.43;;;;;;;13.28;100.00;96080.91;5023350;28;20417;-80
2021/08/18 05:36:07;;;;;;;6.27;5.60;;;;;;;13.36;100.00;96081.19;5015769;28;20453;-80
2021/08/18 05:38:32;;;;;;;6.78;5.47;;;;;;;13.37;100.00;96077.66;5001267;28;20422;-80
2021/08/18 05:40:57;;;;;;;6.33;5.27;;;;;;;13.27;100.00;96081.81;4999379;28;20489;-80
2021/08/18 05:43:23;;;;;;;7.03;4.97;;;;;;;13.36;100.00;96078.59;5000880;28;20446;-80
2021/08/18 05:45:50;;;;;;;6.60;5.10;;;;;;;13.32;100.00;96082.34;4997702;28;20485;-79
2021/08/18 05:48:15;;;;;;;5.00;4.47;;;;;;;13.30;100.00;96085.03;5003320;28;21027;-80
2021/08/18 05:50:41;;;;;;;6.15;4.47;;;;;;;13.31;100.00;96078.06;5017691;28;20436;-80
2021/08/18 05:53:15;;;;;;;5.37;3.93;;;;;;;13.25;100.00;96076.75;5019770;28;20486;-79
2021/08/18 05:55:40;;;;;;;5.60;4.63;;;;;;;13.36;100.00;96081.19;5034853;28;20423;-80
2021/08/18 05:58:06;;;;;;;4.75;4.35;;;;;;;13.40;100.00;96079.22;5030827;28;20416;-79
2021/08/18 06:00:31;;;;;;;6.03;4.03;;;;;;;13.46;100.00;96083.97;5009540;28;20487;-79
2021/08/18 06:02:58;;;;;;;5.10;4.60;;;;;;;13.44;100.00;96086.69;4999705;28;20488;-80
2021/08/18 06:05:24;;;;;;;5.95;4.38;;;;;;;13.46;100.00;96083.97;5001289;28;20422;-80
2021/08/18 06:07:49;;;;;;;4.90;4.23;;;;;;;13.45;100.00;96085.75;5001401;28;20837;-81
2021/08/18 06:10:47;;;;;;;4.90;4.37;;;;;;;13.43;100.00;96085.06;4999459;28;20567;-81
2021/08/18 06:16:45;;;;;;;6.18;4.97;;;;;;;13.66;100.00;96083.44;4864336;29;20429;-80
2021/08/18 06:19:12;;;;;;;4.95;4.45;;;;;;;13.70;100.00;96087.50;4897495;29;20431;-80
2021/08/18 06:21:38;;;;;;;4.95;4.45;;;;;;;13.75;100.00;96082.78;4938904;28;20951;-79
2021/08/18 06:24:14;;;;;;;4.80;4.30;;;;;;;13.86;100.00;96089.84;5016306;28;20424;-80
2021/08/18 06:26:39;;;;;;;5.57;4.55;;;;;;;13.79;100.00;96083.41;5011710;28;20426;-81
2021/08/18 06:29:05;;;;;;;5.05;4.50;;;;;;;13.75;100.00;96088.00;5007389;28;20435;-80
2021/08/18 06:31:30;;;;;;;5.05;3.80;;;;;;;13.70;100.00;96089.28;5017402;28;20965;-80
2021/08/18 06:33:56;;;;;;;4.07;3.70;;;;;;;13.75;100.00;96093.19;5011712;28;20426;-80
2021/08/18 06:36:22;;;;;;;4.20;3.40;;;;;;;13.86;100.00;96089.00;5003573;28;20453;-80
2021/08/18 06:38:59;;;;;;;4.25;3.63;;;;;;;13.80;100.00;96098.09;5016448;28;20421;-80
2021/08/18 06:41:24;;;;;;;3.65;3.17;;;;;;;13.93;100.00;96093.69;5016221;28;20427;-81
2021/08/18 06:43:51;;;;;;;3.20;2.90;;;;;;;13.94;100.00;96097.97;5017215;28;20576;-81
2021/08/18 06:46:16;;;;;;;4.28;2.80;;;;;;;14.00;100.00;96089.69;5013517;28;20973;-78
2021/08/18 06:48:42;;;;;;;5.13;2.78;;;;;;;14.07;100.00;96095.31;5014233;28;20428;-78
2021/08/18 06:51:07;;;;;;;3.53;2.60;;;;;;;14.14;100.00;96091.31;5014308;28;20423;-78
2021/08/18 06:53:34;;;;;;;2.87;2.40;;;;;;;14.26;100.00;96094.81;5013700;28;20443;-80
2021/08/18 06:56:00;;;;;;;2.70;2.17;;;;;;;14.38;100.00;96096.50;4997402;28;20784;-78
2021/08/18 06:58:25;;;;;;;2.57;2.00;;;;;;;14.49;100.00;96094.00;5016255;28;20424;-78
2021/08/18 07:00:51;;;;;;;4.72;2.13;;;;;;;14.55;100.00;96097.94;5013889;28;20424;-79
2021/08/18 07:03:16;;;;;;;2.30;2.03;;;;;;;14.69;100.00;96089.94;5029538;28;20423;-78
2021/08/18 07:05:41;;;;;;;2.03;1.83;;;;;;;14.64;100.00;96096.41;5030696;28;20419;-78
2021/08/18 07:08:07;;;;;;;1.50;1.27;;;;;;;14.61;100.00;96091.44;4994990;28;20469;-79
2021/08/18 07:10:34;;;;;;;1.23;1.13;;;;;;;14.65;100.00;96085.91;4996306;28;20426;-78
2021/08/18 07:13:01;;;;;;;1.83;1.23;;;;;;;14.70;100.00;96093.38;4998300;28;20491;-79
2021/08/18 07:15:27;;;;;;;1.25;1.05;;;;;;;14.68;100.00;96083.06;5013591;28;20428;-79
2021/08/18 07:17:53;;;;;;;2.00;1.00;;;;;;;14.60;100.00;96095.81;5012809;28;20509;-78
2021/08/18 07:20:18;;;;;;;1.80;1.30;;;;;;;14.57;100.00;96098.63;5013066;28;20517;-78
2021/08/18 07:22:43;;;;;;;1.25;1.10;;;;;;;14.77;100.00;96092.81;5014718;28;20449;-78
2021/08/18 07:25:11;;;;;;;2.00;1.10;;;;;;;14.96;100.00;96096.66;5014282;28;20958;-78
2021/08/18 07:27:37;;;;;;;1.30;1.10;;;;;;;15.25;100.00;96097.88;5014150;28;20452;-78
2021/08/18 07:30:03;;;;;;;1.67;0.98;;;;;;;15.65;99.55;96091.38;5012298;28;20922;-78
2021/08/18 07:32:29;;;;;;;0.82;0.70;;;;;;;15.89;96.87;96086.03;5009934;28;20482;-78
2021/08/18 07:38:14;;;;;;;0.80;0.60;;;;;;;15.90;95.36;96082.47;4976868;28;20433;-78
2021/08/18 07:41:29;;;;;;;2.00;0.80;;;;;;;15.80;97.42;96084.16;4993200;28;20812;-79
2021/08/18 07:44:22;;;;;;;0.98;0.50;;;;;;;15.57;97.26;96083.28;4991379;28;20425;-78
2021/08/18 07:47:41;;;;;;;0.93;0.53;;;;;;;15.62;98.04;96086.41;5003397;28;20438;-79
2021/08/18 09:49:05;;;;;;;0.75;0.60;;;;;;;18.37;78.68;96078.31;5479555;23;20459;-78
2021/08/18 09:58:20;;;;;;;1.38;0.50;;;;;;;18.47;74.68;96068.69;4956892;29;20486;-78
2021/08/18 10:00:51;;;;;;;0.60;0.40;;;;;;;18.17;75.24;96076.63;4955671;28;20481;-78
2021/08/18 10:03:17;;;;;;;0.50;0.22;;;;;;;18.25;76.84;96082.03;4955647;29;20432;-78
2021/08/18 10:09:07;;;;;;;0.50;0.30;;;;;;;18.21;75.83;96085.91;4939797;29;20465;-78
2021/08/18 10:11:32;;;;;;;0.20;0.20;;;;;;;18.18;74.96;96086.16;4955464;28;20824;-78
2021/08/18 10:13:58;;;;;;;0.80;0.20;;;;;;;18.05;75.36;96084.59;4955735;28;20481;-78
2021/08/18 10:16:23;;;;;;;0.30;0.30;;;;;;;17.83;77.06;96090.88;4954957;28;20421;-78
2021/08/18 10:18:55;;;;;;;0.50;0.30;;;;;;;17.77;76.89;96088.00;4955603;28;20414;-78
2021/08/18 10:21:45;;;;;;;0.50;0.30;;;;;;;17.81;77.90;96095.44;4957717;28;20425;-78
2021/08/18 10:25:00;;;;;;;0.20;0.20;;;;;;;17.83;77.94;96088.25;4956688;28;20500;-79
2021/08/18 10:28:46;;;;;;;0.30;0.30;;;;;;;17.35;78.72;96085.41;4970641;28;20513;-78
2021/08/18 10:45:10;;;;;;;0.37;0.37;;;;;;;17.43;78.34;96080.38;4953047;29;20484;-77
2021/08/18 10:47:46;;;;;;;0.93;0.30;;;;;;;17.28;80.48;96079.03;4942234;28;20425;-78
2021/08/18 10:50:48;;;;;;;0.30;0.30;;;;;;;17.23;80.54;96082.06;4955465;28;20427;-78
2021/08/18 10:53:30;;;;;;;0.90;0.40;;;;;;;17.08;82.28;96085.97;4930125;29;20486;-78
2021/08/18 10:55:55;;;;;;;0.30;0.30;;;;;;;16.94;83.57;96081.88;4950143;29;20429;-79
2021/08/18 11:22:44;;;;;;;0.60;0.40;;;;;;;17.22;80.77;96074.34;4938174;29;20495;-79
2021/08/18 11:32:58;;;;;;;0.75;0.50;;;;;;;17.49;80.03;96076.41;4925057;29;20965;-78
2021/08/18 11:39:57;;;;;;;0.80;0.70;;;;;;;17.85;78.49;96078.50;4863328;29;20494;-78
2021/08/18 12:06:33;;;;;;;0.80;0.70;;;;;;;18.41;74.23;96071.00;4781914;30;20524;-79
2021/08/18 12:09:51;;;;;;;1.02;0.88;;;;;;;18.62;74.31;96064.66;4787317;29;20502;-79
2021/08/18 12:13:00;;;;;;;1.38;0.77;;;;;;;18.54;74.55;96069.78;4873080;29;20423;-82
2021/08/18 12:15:55;;;;;;;1.17;0.70;;;;;;;18.51;72.73;96070.06;4803440;29;20609;-76
2021/08/18 12:18:29;;;;;;;1.20;0.95;;;;;;;18.24;74.52;96070.69;4913862;29;20957;-80
2021/08/18 12:21:16;;;;;;;1.05;0.90;;;;;;;18.16;73.02;96065.31;4934274;29;20439;-80
2021/08/18 12:23:46;;;;;;;1.20;0.80;;;;;;;17.89;74.31;96071.19;4947192;29;20861;-79
2021/08/18 12:26:30;;;;;;;1.35;1.08;;;;;;;18.05;76.31;96065.44;4955325;28;20421;-79
2021/08/18 12:28:56;;;;;;;1.10;0.97;;;;;;;18.32;74.99;96068.25;4953079;29;20444;-79
2021/08/18 12:31:22;;;;;;;1.02;0.90;;;;;;;18.54;74.71;96064.53;4954870;28;20426;-80
2021/08/18 12:34:06;;;;;;;0.93;0.75;;;;;;;18.51;72.14;96058.75;4953566;28;20988;-80
2021/08/18 12:36:32;;;;;;;1.40;0.90;;;;;;;18.72;72.69;96053.34;4948092;28;20431;-79
2021/08/18 12:39:00;;;;;;;1.70;0.80;;;;;;;18.90;71.39;96056.09;4953765;29;20521;-80
2021/08/18 12:41:28;;;;;;;1.30;0.90;;;;;;;18.98;70.77;96057.03;4953412;28;20433;-80
2021/08/18 12:44:04;;;;;;;1.00;0.87;;;;;;;18.75;72.57;96059.16;4953949;28;20425;-79
2021/08/18 12:46:31;;;;;;;1.42;1.23;;;;;;;18.76;73.26;96054.72;4954156;28;20425;-80
2021/08/18 12:49:25;;;;;;;2.47;1.08;;;;;;;18.54;71.99;96051.41;4955204;28;20485;-80
2021/08/18 12:51:51;;;;;;;2.97;1.23;;;;;;;18.50;73.92;96057.06;4953816;28;20432;-80
2021/08/18 12:54:18;;;;;;;1.70;1.07;;;;;;;18.52;71.09;96057.75;4954494;28;20425;-79
2021/08/18 12:56:43;;;;;;;2.35;1.35;;;;;;;18.68;71.74;96054.56;4954301;29;20424;-80
2021/08/18 12:59:09;;;;;;;2.15;1.13;;;;;;;18.80;72.42;96048.22;4953320;28;20425;-80
2021/08/18 13:01:34;;;;;;;1.52;1.05;;;;;;;19.02;72.11;96052.34;4955185;28;20911;-80
2021/08/18 13:04:00;;;;;;;1.30;1.20;;;;;;;18.80;72.65;96054.34;4953944;29;20449;-80
2021/08/18 13:06:25;;;;;;;1.03;0.87;;;;;;;18.93;70.79;96050.56;4946991;29;20443;-80
2021/08/18 13:08:50;;;;;;;2.03;1.30;;;;;;;18.59;73.39;96056.25;4945772;29;20516;-79
2021/08/18 13:11:17;;;;;;;2.27;1.40;;;;;;;18.89;73.18;96057.09;4954365;28;20464;-80
2021/08/18 13:13:43;;;;;;;1.55;1.10;;;;;;;19.15;71.61;96050.25;4955384;28;20500;-80
2021/08/18 13:16:08;;;;;;;1.67;1.10;;;;;;;19.18;71.12;96051.78;4955416;28;20461;-80
2021/08/18 13:18:34;;;;;;;1.73;1.10;;;;;;;19.13;70.78;96048.72;4954407;28;20434;-80
2021/08/18 13:21:03;;;;;;;2.20;1.27;;;;;;;19.22;69.93;96046.09;4954661;28;20780;-79
2021/08/18 13:23:28;;;;;;;1.30;1.20;;;;;;;19.36;70.23;96041.38;4953821;28;20935;-80
2021/08/18 13:25:54;;;;;;;2.00;1.10;;;;;;;19.44;69.08;96038.84;4953663;28;20461;-80
2021/08/18 13:28:21;;;;;;;1.67;0.97;;;;;;;19.03;68.36;96030.41;4952998;28;20430;-79
2021/08/18 13:30:46;;;;;;;1.50;0.80;;;;;;;18.99;71.49;96026.41;4959459;28;20425;-80
2021/08/18 13:33:12;;;;;;;2.40;0.90;;;;;;;18.85;71.24;96030.28;4957934;28;20480;-80
2021/08/18 13:35:37;;;;;;;1.45;1.13;;;;;;;18.61;71.39;96028.91;4957695;28;20429;-80
2021/08/18 13:38:03;;;;;;;2.03;1.37;;;;;;;18.62;70.06;96027.13;4941329;29;20791;-80
2021/08/18 13:40:30;;;;;;;2.08;1.30;;;;;;;18.59;71.49;96025.59;4958843;28;20425;-80
2021/08/18 13:42:56;;;;;;;2.08;1.40;;;;;;;18.62;71.50;96022.69;4957072;28;20430;-79
2021/08/18 13:45:22;;;;;;;4.73;1.00;;;;;;;18.79;69.76;96029.03;4956407;28;20448;-80
2021/08/18 13:47:48;;;;;;;2.05;0.95;;;;;;;18.84;69.82;96033.91;4957249;28;20516;-79
2021/08/18 13:50:13;;;;;;;2.33;1.50;;;;;;;18.69;69.42;96024.75;4957417;29;20476;-80
2021/08/18 13:52:42;;;;;;;2.58;1.20;;;;;;;18.85;69.78;96027.66;4958071;28;20440;-80
2021/08/18 13:55:09;;;;;;;1.15;0.93;;;;;;;18.72;70.13;96025.31;4957963;29;20452;-79
2021/08/18 13:57:34;;;;;;;2.60;1.35;;;;;;;18.54;71.88;96014.69;4958517;28;20899;-79
2021/08/18 13:59:59;;;;;;;1.93;1.20;;;;;;;18.59;71.02;96025.59;4959415;28;20460;-80
2021/08/18 14:02:29;;;;;;;2.28;1.10;;;;;;;18.90;71.15;96009.69;4959691;28;20979;-80
2021/08/18 14:04:54;;;;;;;1.45;0.90;;;;;;;18.92;71.07;96017.44;4958392;28;20425;-80
2021/08/18 14:07:20;;;;;;;1.33;1.00;;;;;;;19.00;68.83;96014.94;4957724;28;20425;-79
2021/08/18 14:09:45;;;;;;;2.42;1.02;;;;;;;19.07;70.25;96018.63;4958112;28;20426;-80
2021/08/18 14:12:11;;;;;;;0.93;0.87;;;;;;;19.10;68.61;96010.47;4958240;28;20417;-80
2021/08/18 14:14:36;;;;;;;1.27;1.07;;;;;;;18.93;69.32;96019.09;4958299;28;20460;-79
2021/08/18 14:17:02;;;;;;;1.30;0.93;;;;;;;19.15;70.23;96018.75;4959090;28;20428;-80
2021/08/18 14:19:35;;;;;;;1.70;0.90;;;;;;;18.84;70.47;96011.09;4958779;29;20444;-80
2021/08/18 14:22:12;;;;;;;1.42;1.15;;;;;;;18.85;71.68;96014.53;4958980;28;20844;-80
2021/08/18 14:24:38;;;;;;;1.58;1.10;;;;;;;18.80;72.71;96014.97;4956805;28;20476;-79
2021/08/18 14:27:04;;;;;;;1.30;0.90;;;;;;;18.59;71.56;96016.91;4956968;28;20836;-79
2021/08/18 14:30:10;;;;;;;1.67;1.08;;;;;;;18.46;72.48;96009.31;4958865;28;20418;-80
2021/08/18 14:32:36;;;;;;;1.10;0.90;;;;;;;18.62;71.03;96008.75;4965858;28;20449;-79
2021/08/18 14:35:03;;;;;;;2.40;1.10;;;;;;;18.57;72.66;96006.53;4959711;29;20425;-79
2021/08/18 14:37:30;;;;;;;4.20;1.57;;;;;;;18.58;70.78;96004.75;4943608;28;20447;-79
2021/08/18 14:39:56;;;;;;;1.08;0.93;;;;;;;18.62;70.99;96000.88;4957930;28;20438;-79
2021/08/18 14:42:25;;;;;;;1.20;1.00;;;;;;;18.73;71.62;96000.75;4961070;28;20485;-81
2021/08/18 14:44:50;;;;;;;1.20;1.07;;;;;;;18.71;70.88;96000.06;4958099;28;20430;-82
2021/08/18 14:47:15;;;;;;;1.13;1.00;;;;;;;18.86;71.50;96003.91;4956105;28;20489;-81
2021/08/18 15:07:09;;;;;;;1.60;1.17;;;;;;;18.13;74.91;95997.44;4958479;28;20420;-81
2021/08/18 15:09:37;;;;;;;2.75;1.38;;;;;;;18.09;75.61;96003.91;4957254;28;20845;-80
2021/08/18 15:16:11;;;;;;;1.90;1.30;;;;;;;18.01;75.44;95994.13;4957173;29;20460;-80
2021/08/18 15:23:10;;;;;;;2.75;1.30;;;;;;;18.10;75.46;95995.94;4935948;29;20471;-80